Time;durP1;ratioP1;P1;durP2;ratioP2;P2;SDS_P1;SDS_P2;PMS_P1;PMS_P2;Temp;Humidity;BMP_temperature;BMP_pressure;BME280_temperature;BME280_humidity;BME280_pressure;Samples;Min_cycle;Max_cycle;Signal;HPM_P1;HPM_P2
2023/08/28 00:00:29;;;;;;;9.43;6.30;;;13.00;99.90;;;;;;5077253;28;20044;-63
2023/08/28 00:02:57;;;;;;;7.57;6.38;;;13.00;99.90;;;;;;5094852;28;20445;-63
2023/08/28 00:05:25;;;;;;;8.85;6.80;;;13.10;99.90;;;;;;5076779;28;20067;-62
2023/08/28 00:07:51;;;;;;;7.65;5.65;;;12.90;99.90;;;;;;5094637;28;20047;-62
2023/08/28 00:10:17;;;;;;;8.10;6.68;;;13.00;99.90;;;;;;5063534;28;20067;-62
2023/08/28 00:12:44;;;;;;;7.18;6.45;;;13.00;99.90;;;;;;5073824;28;20087;-63
2023/08/28 00:15:11;;;;;;;8.45;6.93;;;13.00;99.90;;;;;;5074469;28;20052;-63
2023/08/28 00:17:37;;;;;;;8.15;6.38;;;13.00;99.90;;;;;;5074905;28;20044;-63
2023/08/28 00:20:09;;;;;;;15.93;7.70;;;12.90;99.90;;;;;;5061262;28;20058;-62
2023/08/28 00:22:37;;;;;;;8.82;6.78;;;13.00;99.90;;;;;;5094018;28;20044;-64
2023/08/28 00:25:04;;;;;;;8.32;7.15;;;13.00;99.90;;;;;;5094636;28;20105;-62
2023/08/28 00:27:31;;;;;;;7.55;6.75;;;12.90;99.90;;;;;;5094268;28;20055;-62
2023/08/28 00:29:57;;;;;;;8.20;6.80;;;12.90;99.90;;;;;;5066398;28;20056;-62
2023/08/28 00:32:26;;;;;;;9.93;6.93;;;12.80;99.90;;;;;;5073643;28;20061;-62
2023/08/28 00:34:53;;;;;;;10.32;6.93;;;12.80;99.90;;;;;;5073427;28;20044;-62
2023/08/28 00:37:20;;;;;;;7.57;6.78;;;12.80;99.90;;;;;;5039406;28;20044;-62
2023/08/28 00:39:46;;;;;;;7.75;6.75;;;12.80;99.90;;;;;;5070982;28;20479;-63
2023/08/28 00:42:13;;;;;;;8.73;6.85;;;12.90;99.90;;;;;;5093061;28;20050;-62
2023/08/28 00:44:39;;;;;;;8.10;6.50;;;12.80;99.90;;;;;;5094082;28;20054;-63
2023/08/28 00:47:07;;;;;;;9.60;6.93;;;12.80;99.90;;;;;;5075564;28;20075;-62
2023/08/28 00:49:33;;;;;;;8.98;7.50;;;12.70;99.90;;;;;;5074788;28;20063;-62
2023/08/28 00:52:01;;;;;;;9.63;7.25;;;12.80;99.90;;;;;;5075274;28;20059;-62
2023/08/28 00:54:28;;;;;;;8.63;6.90;;;12.70;99.90;;;;;;5075621;28;20052;-63
2023/08/28 00:56:55;;;;;;;9.32;7.35;;;12.80;99.90;;;;;;5093547;28;20381;-61
2023/08/28 00:59:21;;;;;;;9.00;6.90;;;12.80;99.90;;;;;;5088559;28;20096;-61
2023/08/28 01:01:49;;;;;;;10.02;7.20;;;12.90;99.90;;;;;;5072753;28;20378;-62
2023/08/28 01:04:15;;;;;;;7.88;6.68;;;12.80;99.90;;;;;;5055547;28;20102;-63
2023/08/28 01:07:02;;;;;;;8.30;6.45;;;12.80;99.90;;;;;;5073301;28;20052;-63
2023/08/28 01:09:58;;;;;;;9.40;6.88;;;12.90;99.90;;;;;;5055455;28;20071;-62
2023/08/28 01:12:52;;;;;;;8.68;7.20;;;12.90;99.90;;;;;;5075159;28;20295;-62
2023/08/28 01:15:23;;;;;;;8.90;6.63;;;12.80;99.90;;;;;;5093431;28;20380;-62
2023/08/28 01:17:55;;;;;;;8.77;6.72;;;12.90;99.90;;;;;;5075244;28;20044;-62
2023/08/28 01:20:24;;;;;;;7.82;6.47;;;12.90;99.90;;;;;;5079561;28;20051;-62
2023/08/28 01:23:08;;;;;;;8.50;6.70;;;12.80;99.90;;;;;;5055622;28;20045;-62
2023/08/28 01:25:36;;;;;;;9.52;6.63;;;12.80;99.90;;;;;;5073093;28;20429;-62
2023/08/28 01:28:02;;;;;;;7.32;6.18;;;12.70;99.90;;;;;;5054830;28;20056;-62
2023/08/28 01:30:29;;;;;;;10.00;7.40;;;12.80;99.90;;;;;;5071930;28;20465;-62
2023/08/28 01:32:55;;;;;;;8.10;7.30;;;12.70;99.90;;;;;;5038347;28;20056;-62
2023/08/28 01:35:32;;;;;;;9.93;7.95;;;12.60;99.90;;;;;;5055081;28;20048;-62
2023/08/28 01:38:07;;;;;;;11.05;7.82;;;12.60;99.90;;;;;;5072785;28;20090;-62
2023/08/28 01:41:01;;;;;;;10.75;8.90;;;12.60;99.90;;;;;;5064499;28;20053;-63
2023/08/28 01:43:42;;;;;;;10.50;8.63;;;12.50;99.90;;;;;;5071539;28;20049;-62
2023/08/28 01:46:08;;;;;;;12.02;9.63;;;12.40;99.90;;;;;;5070948;28;20048;-62
2023/08/28 01:48:35;;;;;;;13.70;9.57;;;12.50;99.90;;;;;;5071523;28;20087;-62
2023/08/28 01:51:02;;;;;;;10.93;9.38;;;12.40;99.90;;;;;;5069709;28;20052;-63
2023/08/28 01:53:28;;;;;;;13.23;8.98;;;12.30;99.90;;;;;;5071378;28;20052;-63
2023/08/28 01:56:15;;;;;;;11.05;8.63;;;12.40;99.90;;;;;;5072483;28;20063;-62
2023/08/28 01:58:43;;;;;;;11.15;9.15;;;12.30;99.90;;;;;;5054752;28;20311;-62
2023/08/28 02:01:10;;;;;;;10.43;9.27;;;12.40;99.90;;;;;;5071476;28;20558;-62
2023/08/28 02:03:39;;;;;;;11.27;9.52;;;12.30;99.90;;;;;;5055030;28;20433;-62
2023/08/28 02:06:06;;;;;;;11.70;9.32;;;12.30;99.90;;;;;;5072544;28;20048;-62
2023/08/28 02:08:33;;;;;;;11.45;8.63;;;12.30;99.90;;;;;;5072367;28;20052;-61
2023/08/28 02:10:59;;;;;;;11.15;8.82;;;12.40;99.90;;;;;;5067975;28;20060;-62
2023/08/28 02:13:25;;;;;;;10.80;9.20;;;12.40;99.90;;;;;;5071091;28;20053;-61
2023/08/28 02:15:53;;;;;;;11.20;8.80;;;12.40;99.90;;;;;;5054606;28;20048;-64
2023/08/28 02:18:19;;;;;;;13.70;8.90;;;12.50;99.90;;;;;;5070488;28;20048;-62
2023/08/28 02:20:46;;;;;;;11.70;8.13;;;12.40;99.90;;;;;;5071097;28;20109;-62
2023/08/28 02:23:13;;;;;;;12.98;8.98;;;12.40;99.90;;;;;;5071706;28;20044;-63
2023/08/28 02:25:44;;;;;;;10.90;8.38;;;12.50;99.90;;;;;;5071852;28;20059;-62
2023/08/28 02:28:10;;;;;;;11.55;8.63;;;12.50;99.90;;;;;;5038238;28;20067;-63
2023/08/28 02:30:37;;;;;;;11.43;8.35;;;12.50;99.90;;;;;;5072251;28;20056;-64
2023/08/28 02:33:03;;;;;;;13.45;8.73;;;12.70;99.90;;;;;;5054447;28;20060;-64
2023/08/28 02:35:30;;;;;;;10.43;8.65;;;12.70;99.90;;;;;;5053890;28;20353;-63
2023/08/28 02:37:56;;;;;;;11.13;8.75;;;12.70;99.90;;;;;;5071655;28;20052;-64
2023/08/28 02:40:25;;;;;;;11.15;8.77;;;12.80;99.90;;;;;;5062328;28;20064;-64
2023/08/28 02:42:53;;;;;;;10.38;8.70;;;12.70;99.90;;;;;;5071849;28;20045;-64
2023/08/28 02:45:20;;;;;;;10.82;8.55;;;12.70;99.90;;;;;;5070597;28;20173;-64
2023/08/28 02:47:46;;;;;;;11.35;8.75;;;12.90;99.90;;;;;;5071734;28;20120;-64
2023/08/28 02:50:12;;;;;;;10.43;8.48;;;12.80;99.90;;;;;;5069897;28;20048;-64
2023/08/28 02:52:38;;;;;;;9.05;8.02;;;12.80;99.90;;;;;;5071362;28;20064;-64
2023/08/28 02:55:06;;;;;;;10.23;8.10;;;12.70;99.90;;;;;;5071541;28;20099;-64
2023/08/28 02:57:32;;;;;;;9.90;7.95;;;12.70;99.90;;;;;;5073418;28;20110;-64
2023/08/28 03:00:00;;;;;;;13.10;9.25;;;12.60;99.90;;;;;;5075181;28;20048;-64
2023/08/28 03:02:26;;;;;;;10.32;8.70;;;12.70;99.90;;;;;;5075031;28;20044;-63
2023/08/28 03:04:52;;;;;;;8.38;7.35;;;12.70;99.90;;;;;;5075608;28;20045;-63
2023/08/28 03:07:18;;;;;;;13.15;8.23;;;12.70;99.90;;;;;;5057803;28;20052;-63
2023/08/28 03:09:45;;;;;;;9.60;7.95;;;12.70;99.90;;;;;;5074722;28;20040;-64
2023/08/28 03:12:11;;;;;;;10.00;7.88;;;12.70;99.90;;;;;;5040832;28;20052;-64
2023/08/28 03:14:38;;;;;;;9.75;7.55;;;12.60;99.90;;;;;;5075483;28;20052;-63
2023/08/28 03:17:05;;;;;;;9.98;7.50;;;12.70;99.90;;;;;;5075252;28;20438;-63
2023/08/28 03:19:32;;;;;;;10.52;7.40;;;12.70;99.90;;;;;;5042271;28;20044;-63
2023/08/28 03:21:58;;;;;;;10.60;7.00;;;12.80;99.90;;;;;;5074663;28;20044;-65
2023/08/28 03:24:26;;;;;;;8.73;6.93;;;12.70;99.90;;;;;;5075403;28;20048;-64
2023/08/28 03:26:52;;;;;;;8.23;6.70;;;12.90;99.90;;;;;;5075050;28;20044;-63
2023/08/28 03:29:19;;;;;;;10.00;7.40;;;12.80;99.90;;;;;;5073275;28;20342;-63
2023/08/28 03:31:46;;;;;;;8.18;6.60;;;12.80;99.90;;;;;;5074457;28;20495;-63
2023/08/28 03:34:12;;;;;;;8.65;7.10;;;12.90;99.90;;;;;;5075014;28;20345;-65
2023/08/28 03:36:38;;;;;;;9.27;7.10;;;12.80;99.90;;;;;;5057086;28;20470;-64
2023/08/28 03:39:06;;;;;;;7.18;6.10;;;12.90;99.90;;;;;;5056213;28;20059;-63
2023/08/28 03:41:32;;;;;;;7.45;5.78;;;13.00;99.90;;;;;;5074120;28;20048;-63
2023/08/28 03:43:58;;;;;;;7.25;5.32;;;13.00;99.90;;;;;;5075051;28;20049;-64
2023/08/28 03:46:25;;;;;;;8.15;5.43;;;13.00;99.90;;;;;;5057298;28;20096;-63
2023/08/28 03:48:51;;;;;;;6.50;5.07;;;12.90;99.90;;;;;;5074579;28;20064;-63
2023/08/28 03:51:18;;;;;;;6.72;4.97;;;13.00;99.90;;;;;;5073837;28;20048;-64
2023/08/28 03:53:45;;;;;;;6.55;4.45;;;12.90;99.90;;;;;;5074281;28;20408;-64
2023/08/28 03:56:11;;;;;;;7.57;5.25;;;12.90;99.90;;;;;;5074767;28;20344;-63
2023/08/28 03:58:38;;;;;;;6.90;4.97;;;12.90;99.90;;;;;;5056916;28;20063;-63
2023/08/28 04:01:04;;;;;;;5.57;4.68;;;12.80;99.90;;;;;;5073074;28;20056;-63
2023/08/28 04:03:30;;;;;;;7.15;5.63;;;12.80;99.90;;;;;;5074534;28;20253;-63
2023/08/28 04:06:00;;;;;;;6.75;5.25;;;12.70;99.90;;;;;;5073984;28;20044;-64
2023/08/28 04:08:26;;;;;;;7.88;6.43;;;12.70;99.90;;;;;;5073799;28;20052;-63
2023/08/28 04:10:53;;;;;;;7.13;5.10;;;12.60;99.90;;;;;;5074252;28;20071;-63
2023/08/28 04:13:20;;;;;;;10.80;6.00;;;12.60;99.90;;;;;;5074177;28;20093;-63
2023/08/28 04:15:46;;;;;;;9.43;6.13;;;12.60;99.90;;;;;;5074534;28;20049;-64
2023/08/28 04:18:12;;;;;;;8.10;6.38;;;12.50;99.90;;;;;;5074318;28;20044;-64
2023/08/28 04:20:39;;;;;;;8.60;5.85;;;12.60;99.90;;;;;;5073067;28;20067;-63
2023/08/28 04:23:09;;;;;;;7.00;6.18;;;12.50;99.90;;;;;;5074032;28;20075;-64
2023/08/28 04:25:35;;;;;;;9.93;6.90;;;12.40;99.90;;;;;;5074387;28;20117;-64
2023/08/28 04:28:33;;;;;;;10.73;7.57;;;12.40;99.90;;;;;;5074351;28;20056;-64
2023/08/28 04:31:00;;;;;;;11.75;7.55;;;12.30;99.90;;;;;;5072914;28;20052;-64
2023/08/28 04:33:26;;;;;;;10.68;7.75;;;12.30;99.90;;;;;;5074024;28;20101;-64
2023/08/28 04:35:53;;;;;;;11.68;8.25;;;12.20;99.90;;;;;;5056088;28;20147;-64
2023/08/28 04:38:20;;;;;;;9.95;7.32;;;12.30;99.90;;;;;;5074056;28;20040;-64
2023/08/28 04:40:48;;;;;;;10.98;8.43;;;12.20;99.90;;;;;;5072627;28;20061;-64
2023/08/28 04:43:15;;;;;;;11.48;8.15;;;12.10;99.90;;;;;;5056466;28;20040;-64
2023/08/28 04:45:42;;;;;;;10.63;8.57;;;12.20;99.90;;;;;;5056404;28;20048;-64
2023/08/28 04:48:08;;;;;;;11.93;8.52;;;12.20;99.90;;;;;;5073780;28;20198;-63
2023/08/28 04:50:35;;;;;;;10.27;8.35;;;12.20;99.90;;;;;;5072144;28;20461;-64
2023/08/28 04:53:02;;;;;;;10.90;8.88;;;12.10;99.90;;;;;;5056080;28;20060;-63
2023/08/28 04:55:38;;;;;;;12.90;9.48;;;12.20;99.90;;;;;;5073703;28;20053;-64
2023/08/28 04:58:05;;;;;;;11.07;8.68;;;12.10;99.90;;;;;;5073773;28;20044;-63
2023/08/28 05:00:31;;;;;;;11.50;9.05;;;12.10;99.90;;;;;;5054993;28;20194;-64
2023/08/28 05:02:58;;;;;;;10.73;8.57;;;12.10;99.90;;;;;;5073529;28;20411;-64
2023/08/28 05:05:24;;;;;;;12.05;8.98;;;12.10;99.90;;;;;;5073335;28;20044;-64
2023/08/28 05:07:50;;;;;;;10.80;8.95;;;12.10;99.90;;;;;;5055669;28;20138;-64
2023/08/28 05:10:16;;;;;;;11.60;8.95;;;12.20;99.90;;;;;;5072108;28;20619;-64
2023/08/28 05:12:44;;;;;;;12.15;9.60;;;12.10;99.90;;;;;;5055075;28;20449;-65
2023/08/28 05:15:12;;;;;;;13.05;9.55;;;12.20;99.90;;;;;;5073186;28;20136;-64
2023/08/28 05:17:39;;;;;;;11.23;9.13;;;12.20;99.90;;;;;;5055342;28;20048;-64
2023/08/28 05:20:05;;;;;;;10.82;9.02;;;12.20;99.90;;;;;;5071491;28;20045;-64
2023/08/28 05:22:32;;;;;;;12.40;9.27;;;12.30;99.90;;;;;;5072768;28;20059;-64
2023/08/28 05:24:58;;;;;;;13.60;9.45;;;12.40;99.90;;;;;;5055302;28;20068;-64
2023/08/28 05:27:24;;;;;;;11.25;9.73;;;12.40;99.90;;;;;;5072799;28;20082;-64
2023/08/28 05:29:52;;;;;;;12.30;8.95;;;12.30;99.90;;;;;;5071988;28;20110;-64
2023/08/28 05:32:18;;;;;;;13.85;9.07;;;12.50;99.90;;;;;;5072517;28;20048;-63
2023/08/28 05:34:44;;;;;;;11.88;9.50;;;12.50;99.90;;;;;;5072804;28;20114;-63
2023/08/28 05:37:12;;;;;;;15.00;10.10;;;12.50;99.90;;;;;;5072727;28;20106;-63
2023/08/28 05:39:38;;;;;;;10.80;8.82;;;12.90;99.90;;;;;;5054707;28;20037;-63
2023/08/28 05:42:04;;;;;;;12.63;9.70;;;13.50;99.90;;;;;;5020447;28;20045;-63
2023/08/28 05:44:31;;;;;;;12.10;8.77;;;14.10;99.90;;;;;;5052561;28;20067;-63
2023/08/28 05:46:58;;;;;;;9.63;8.63;;;14.50;99.90;;;;;;5052686;28;20095;-65
2023/08/28 05:49:24;;;;;;;10.20;8.75;;;14.60;99.90;;;;;;5052149;28;20041;-64
2023/08/28 05:51:50;;;;;;;10.77;8.77;;;14.80;99.90;;;;;;5051670;28;20380;-64
2023/08/28 05:54:17;;;;;;;10.20;8.82;;;15.50;99.90;;;;;;5052425;28;20049;-64
2023/08/28 05:56:43;;;;;;;9.65;8.63;;;16.10;99.90;;;;;;5052400;28;20110;-64
2023/08/28 05:59:10;;;;;;;11.07;8.52;;;16.80;99.90;;;;;;5033982;28;20052;-64
2023/08/28 06:01:37;;;;;;;10.55;8.13;;;17.50;99.90;;;;;;5052002;28;20045;-63
2023/08/28 06:04:03;;;;;;;8.25;7.28;;;18.00;99.90;;;;;;5052589;28;20045;-63
2023/08/28 06:06:30;;;;;;;9.68;8.00;;;18.50;99.90;;;;;;5034844;28;20070;-64
2023/08/28 06:08:56;;;;;;;10.50;7.53;;;19.00;99.90;;;;;;5051952;28;20061;-63
2023/08/28 06:11:22;;;;;;;9.95;8.15;;;19.60;99.90;;;;;;5051123;28;20056;-63
2023/08/28 06:13:48;;;;;;;8.65;7.55;;;19.90;99.90;;;;;;5052309;28;20064;-63
2023/08/28 06:16:15;;;;;;;8.43;7.43;;;20.00;99.90;;;;;;5034813;28;20114;-62
2023/08/28 06:18:41;;;;;;;9.15;7.53;;;20.40;99.90;;;;;;5052026;28;20056;-63
2023/08/28 06:21:07;;;;;;;8.65;6.55;;;20.60;99.90;;;;;;5033636;28;20099;-62
2023/08/28 06:23:35;;;;;;;7.90;7.10;;;20.80;99.90;;;;;;5051776;28;20337;-63
2023/08/28 06:26:03;;;;;;;7.45;6.75;;;21.10;99.90;;;;;;5018046;28;20151;-63
2023/08/28 06:28:29;;;;;;;7.63;6.85;;;21.10;99.90;;;;;;5051663;28;20424;-63
2023/08/28 06:30:56;;;;;;;7.90;6.78;;;21.10;99.90;;;;;;5051277;28;20080;-63
2023/08/28 06:33:22;;;;;;;8.10;7.28;;;20.90;99.90;;;;;;5051692;28;20049;-64
2023/08/28 06:35:49;;;;;;;7.97;6.75;;;20.90;99.90;;;;;;5034223;28;20349;-64
2023/08/28 06:38:15;;;;;;;7.97;6.78;;;21.00;99.90;;;;;;5034461;28;20056;-63
2023/08/28 06:40:46;;;;;;;7.30;6.47;;;21.00;99.90;;;;;;5056575;28;20053;-64
2023/08/28 06:43:12;;;;;;;8.02;7.10;;;20.90;99.90;;;;;;5071990;28;20044;-64
2023/08/28 06:45:39;;;;;;;8.52;6.88;;;20.90;99.90;;;;;;5054648;28;20053;-63
2023/08/28 06:48:07;;;;;;;8.82;6.80;;;21.00;99.90;;;;;;5072270;28;20048;-63
2023/08/28 06:50:34;;;;;;;8.85;6.68;;;21.00;99.90;;;;;;5071047;28;20123;-64
2023/08/28 06:53:02;;;;;;;7.57;6.80;;;20.90;99.90;;;;;;5037217;28;20059;-63
2023/08/28 06:55:29;;;;;;;9.13;6.60;;;21.00;99.90;;;;;;5037664;28;20088;-64
2023/08/28 06:57:55;;;;;;;8.63;6.45;;;21.00;99.90;;;;;;5071966;28;20055;-63
2023/08/28 07:00:22;;;;;;;7.50;5.75;;;21.10;99.90;;;;;;5071026;28;20089;-63
2023/08/28 07:02:48;;;;;;;8.32;6.10;;;21.20;99.90;;;;;;5054101;28;20049;-63
2023/08/28 07:05:15;;;;;;;7.90;6.25;;;21.20;99.90;;;;;;5053920;28;20350;-65
2023/08/28 07:07:42;;;;;;;8.63;5.63;;;21.10;99.90;;;;;;5053926;28;20056;-63
2023/08/28 07:10:08;;;;;;;5.85;5.30;;;21.30;99.90;;;;;;5070779;28;20115;-63
2023/08/28 07:12:35;;;;;;;7.20;5.40;;;21.50;99.90;;;;;;5071240;28;20044;-63
2023/08/28 07:15:10;;;;;;;6.88;5.47;;;21.60;99.90;;;;;;5071101;28;20727;-64
2023/08/28 07:17:37;;;;;;;6.57;5.18;;;21.40;99.90;;;;;;5071995;28;20098;-63
2023/08/28 07:20:06;;;;;;;5.95;4.50;;;21.10;99.90;;;;;;5052331;28;20435;-63
2023/08/28 07:22:32;;;;;;;5.35;4.47;;;20.70;99.90;;;;;;5053420;28;20052;-64
2023/08/28 07:24:58;;;;;;;6.40;4.80;;;20.40;99.90;;;;;;5071462;28;20053;-63
2023/08/28 07:27:26;;;;;;;6.30;5.13;;;20.10;99.90;;;;;;5053840;28;20049;-63
2023/08/28 07:29:52;;;;;;;4.93;4.43;;;20.00;99.90;;;;;;5070122;28;20048;-62
2023/08/28 07:32:18;;;;;;;5.10;4.13;;;19.80;99.90;;;;;;5053710;28;20052;-63
2023/08/28 07:34:45;;;;;;;5.40;4.38;;;19.60;99.90;;;;;;5070912;28;20056;-63
2023/08/28 07:37:11;;;;;;;5.57;4.35;;;19.50;99.90;;;;;;5070884;28;20079;-63
2023/08/28 07:39:37;;;;;;;5.18;4.38;;;19.40;99.90;;;;;;5070118;28;20036;-63
2023/08/28 07:42:05;;;;;;;5.43;4.47;;;19.20;99.90;;;;;;5052837;28;20044;-62
2023/08/28 07:44:31;;;;;;;7.03;4.20;;;19.40;99.90;;;;;;5055070;28;20045;-62
2023/08/28 07:46:59;;;;;;;5.22;4.35;;;19.40;99.90;;;;;;5056878;28;20055;-63
2023/08/28 07:49:25;;;;;;;6.88;4.57;;;19.50;99.90;;;;;;5074842;28;20063;-62
2023/08/28 07:51:53;;;;;;;7.18;4.25;;;19.70;99.90;;;;;;5074233;28;20048;-63
2023/08/28 07:54:19;;;;;;;5.47;3.25;;;19.60;99.90;;;;;;5074741;28;20469;-63
2023/08/28 07:56:45;;;;;;;4.50;2.67;;;19.60;99.90;;;;;;5074613;28;20372;-63
2023/08/28 07:59:11;;;;;;;5.25;3.00;;;19.80;99.90;;;;;;5074090;28;20114;-64
2023/08/28 08:01:39;;;;;;;7.10;3.10;;;19.70;99.90;;;;;;5091142;28;20048;-63
2023/08/28 08:04:05;;;;;;;6.13;3.00;;;19.70;99.90;;;;;;5094762;28;20113;-64
2023/08/28 08:06:33;;;;;;;6.30;3.03;;;19.70;99.90;;;;;;5076725;28;20496;-64
2023/08/28 08:08:59;;;;;;;5.75;2.50;;;19.60;99.90;;;;;;5095067;28;20060;-64
2023/08/28 08:11:25;;;;;;;3.92;2.45;;;19.30;99.90;;;;;;5093944;28;20059;-63
2023/08/28 08:13:51;;;;;;;4.90;2.00;;;19.10;99.90;;;;;;5094669;28;20048;-62
2023/08/28 08:16:18;;;;;;;5.13;2.40;;;19.00;99.90;;;;;;5094585;28;20522;-63
2023/08/28 08:18:45;;;;;;;7.10;2.20;;;18.90;99.90;;;;;;5094705;28;20530;-63
2023/08/28 08:21:13;;;;;;;5.75;2.17;;;18.80;99.90;;;;;;5075989;28;20142;-62
2023/08/28 08:23:39;;;;;;;3.65;1.80;;;18.90;99.90;;;;;;5076853;28;20540;-63
2023/08/28 08:26:06;;;;;;;3.00;1.83;;;19.00;99.90;;;;;;5076408;28;20426;-62
2023/08/28 08:28:32;;;;;;;4.68;2.00;;;19.30;99.90;;;;;;5094489;28;20055;-62
2023/08/28 08:30:58;;;;;;;2.58;1.70;;;19.40;99.90;;;;;;5093758;28;20058;-63
2023/08/28 08:33:24;;;;;;;3.78;2.05;;;19.60;99.90;;;;;;5094363;28;20449;-63
2023/08/28 08:35:51;;;;;;;4.30;1.50;;;19.60;99.90;;;;;;5094180;28;20350;-62
2023/08/28 08:38:17;;;;;;;3.85;1.48;;;19.40;99.90;;;;;;5094181;28;20101;-64
2023/08/28 08:41:02;;;;;;;7.38;2.50;;;19.20;99.90;;;;;;5093168;28;20052;-63
2023/08/28 08:43:29;;;;;;;2.30;1.42;;;19.30;99.90;;;;;;5094041;28;20453;-63
2023/08/28 08:46:01;;;;;;;6.97;1.75;;;19.20;99.90;;;;;;5094311;28;20048;-64
2023/08/28 08:48:29;;;;;;;2.60;1.30;;;19.20;99.90;;;;;;5094199;28;20071;-63
2023/08/28 08:51:08;;;;;;;3.97;1.73;;;19.20;99.90;;;;;;5092981;28;20117;-62
2023/08/28 08:53:43;;;;;;;2.70;1.35;;;19.10;99.90;;;;;;5076344;28;20052;-63
2023/08/28 08:56:15;;;;;;;4.05;1.33;;;19.10;99.90;;;;;;5094231;28;20137;-62
2023/08/28 08:58:42;;;;;;;2.67;1.25;;;19.10;99.90;;;;;;5076038;28;20048;-63
2023/08/28 09:01:09;;;;;;;3.05;1.40;;;19.00;99.90;;;;;;5093239;28;20102;-64
2023/08/28 09:03:41;;;;;;;3.97;1.90;;;19.00;99.90;;;;;;5075988;28;20152;-63
2023/08/28 09:06:07;;;;;;;4.13;1.55;;;18.80;99.90;;;;;;5093691;28;20125;-62
2023/08/28 09:08:38;;;;;;;2.50;1.30;;;18.70;99.90;;;;;;5093588;28;20048;-63
2023/08/28 09:11:08;;;;;;;2.72;1.27;;;18.70;99.90;;;;;;5093239;28;20063;-62
2023/08/28 09:13:35;;;;;;;2.65;1.42;;;18.80;99.90;;;;;;5093773;28;20059;-63
2023/08/28 09:16:04;;;;;;;2.50;1.23;;;19.00;99.90;;;;;;5093682;28;20360;-62
2023/08/28 09:18:30;;;;;;;3.03;1.08;;;19.10;99.90;;;;;;5075634;28;20077;-62
2023/08/28 09:21:13;;;;;;;2.97;1.10;;;19.30;99.90;;;;;;5092716;28;20132;-63
2023/08/28 09:23:47;;;;;;;2.40;1.23;;;19.40;99.90;;;;;;5093750;28;20052;-62
2023/08/28 09:26:23;;;;;;;1.67;1.20;;;19.40;99.90;;;;;;5093690;28;20044;-64
2023/08/28 09:29:00;;;;;;;2.80;1.30;;;19.60;99.90;;;;;;5093547;28;20048;-62
2023/08/28 09:31:32;;;;;;;3.15;1.30;;;19.70;99.90;;;;;;5092475;28;20464;-65
2023/08/28 09:34:01;;;;;;;5.38;2.20;;;19.70;99.90;;;;;;5093458;28;20467;-63
2023/08/28 09:36:27;;;;;;;3.42;1.58;;;19.60;99.90;;;;;;5093346;28;20059;-64
2023/08/28 09:39:01;;;;;;;3.50;1.70;;;19.40;99.90;;;;;;5075059;28;20145;-63
2023/08/28 09:41:48;;;;;;;2.45;1.70;;;19.50;99.90;;;;;;5091900;28;20063;-63
2023/08/28 09:44:17;;;;;;;4.20;1.75;;;19.60;99.90;;;;;;5058520;28;20044;-62
2023/08/28 09:46:45;;;;;;;2.28;1.20;;;19.90;99.90;;;;;;5075181;28;20101;-63
2023/08/28 09:49:13;;;;;;;2.88;1.10;;;19.90;99.90;;;;;;5074788;28;20452;-63
2023/08/28 09:51:43;;;;;;;2.08;1.15;;;19.90;99.90;;;;;;5074263;28;20055;-62
2023/08/28 09:54:11;;;;;;;3.47;1.27;;;19.80;99.90;;;;;;5092978;28;20048;-63
2023/08/28 09:56:38;;;;;;;1.70;1.08;;;19.80;99.90;;;;;;5093030;28;20135;-62
2023/08/28 09:59:06;;;;;;;2.53;1.35;;;19.80;99.90;;;;;;5074685;28;20349;-64
2023/08/28 10:01:34;;;;;;;3.58;1.20;;;20.00;99.90;;;;;;5092235;28;20048;-63
2023/08/28 10:04:09;;;;;;;3.00;1.20;;;19.90;99.90;;;;;;5074303;28;20063;-63
2023/08/28 10:06:41;;;;;;;4.30;1.85;;;20.00;99.90;;;;;;5091851;28;20059;-63
2023/08/28 10:09:18;;;;;;;4.93;1.92;;;19.90;99.90;;;;;;5092521;28;20085;-62
2023/08/28 10:11:45;;;;;;;3.65;1.50;;;19.70;99.90;;;;;;5075311;28;20398;-62
2023/08/28 10:14:13;;;;;;;3.35;1.25;;;19.60;99.90;;;;;;5092383;28;20391;-63
2023/08/28 10:16:44;;;;;;;4.72;1.42;;;19.60;99.90;;;;;;5093062;28;20056;-63
2023/08/28 10:19:30;;;;;;;2.75;1.20;;;19.60;99.90;;;;;;5074836;28;20083;-62
2023/08/28 10:22:06;;;;;;;4.20;1.20;;;19.60;99.90;;;;;;5072288;28;20460;-62
2023/08/28 10:24:36;;;;;;;3.45;1.42;;;19.50;99.90;;;;;;5072306;28;20082;-63
2023/08/28 10:27:03;;;;;;;2.38;1.30;;;19.50;99.90;;;;;;5071710;28;20440;-63
2023/08/28 10:29:31;;;;;;;2.40;1.40;;;19.50;99.90;;;;;;5073374;28;20052;-63
2023/08/28 10:31:58;;;;;;;2.78;1.40;;;19.60;99.90;;;;;;5092589;28;20048;-62
2023/08/28 10:34:26;;;;;;;3.10;1.33;;;19.60;99.90;;;;;;5091945;28;20354;-62
2023/08/28 10:36:56;;;;;;;3.72;1.27;;;19.60;99.90;;;;;;5074056;28;20051;-62
2023/08/28 10:39:25;;;;;;;2.78;1.50;;;19.60;99.90;;;;;;5091833;28;20122;-62
2023/08/28 10:41:53;;;;;;;2.67;1.30;;;19.70;99.90;;;;;;5071454;28;20385;-62
2023/08/28 10:44:22;;;;;;;6.15;1.50;;;19.90;99.90;;;;;;5053817;28;20499;-63
2023/08/28 10:46:51;;;;;;;3.22;1.13;;;20.00;99.90;;;;;;5054285;28;20075;-62
2023/08/28 10:49:18;;;;;;;2.78;1.20;;;20.00;99.90;;;;;;5070584;28;20048;-64
2023/08/28 10:51:44;;;;;;;1.27;0.88;;;20.20;99.90;;;;;;5091341;28;20052;-63
2023/08/28 10:54:13;;;;;;;1.92;1.20;;;20.20;99.90;;;;;;5092130;28;20106;-62
2023/08/28 10:56:39;;;;;;;2.13;1.08;;;20.20;99.90;;;;;;5091969;28;20063;-62
2023/08/28 10:59:24;;;;;;;2.00;1.00;;;20.30;99.90;;;;;;5092175;28;20048;-62
2023/08/28 11:01:55;;;;;;;4.40;1.42;;;20.40;99.90;;;;;;5091822;28;20169;-62
2023/08/28 11:04:22;;;;;;;2.75;1.10;;;20.40;99.90;;;;;;5091812;28;20117;-63
2023/08/28 11:07:08;;;;;;;4.22;1.10;;;20.40;99.90;;;;;;5074113;28;20056;-63
2023/08/28 11:09:36;;;;;;;3.45;1.20;;;20.60;99.90;;;;;;5073534;28;20512;-63
2023/08/28 11:12:11;;;;;;;2.45;1.38;;;20.90;99.90;;;;;;5074225;28;20060;-63
2023/08/28 11:14:40;;;;;;;2.33;0.90;;;21.30;99.90;;;;;;5091828;28;20098;-63
2023/08/28 11:17:17;;;;;;;3.10;1.17;;;21.50;99.90;;;;;;5092469;28;20109;-62
2023/08/28 11:19:59;;;;;;;3.05;1.30;;;21.70;99.90;;;;;;5095298;28;20067;-63
2023/08/28 11:22:46;;;;;;;3.67;1.40;;;21.40;99.90;;;;;;5096012;28;20443;-62
2023/08/28 11:25:34;;;;;;;3.05;1.27;;;21.10;99.90;;;;;;5095890;28;20044;-63
2023/08/28 11:28:00;;;;;;;3.22;1.10;;;21.10;99.90;;;;;;5061743;28;20055;-63
2023/08/28 11:30:27;;;;;;;3.60;1.10;;;20.80;99.90;;;;;;5077687;28;20043;-64
2023/08/28 11:32:55;;;;;;;2.78;1.10;;;20.60;99.90;;;;;;5078133;28;20080;-63
2023/08/28 11:35:22;;;;;;;1.92;1.10;;;20.70;99.90;;;;;;5077705;28;20067;-62
2023/08/28 11:37:51;;;;;;;1.75;1.00;;;20.50;99.90;;;;;;5077375;28;20369;-62
2023/08/28 11:40:18;;;;;;;2.72;1.45;;;20.60;99.90;;;;;;5094561;28;20051;-62
2023/08/28 11:42:49;;;;;;;2.97;1.10;;;20.60;99.90;;;;;;5077107;28;20060;-63
2023/08/28 11:45:22;;;;;;;2.63;1.20;;;20.50;99.90;;;;;;5095050;28;20109;-62
2023/08/28 11:47:49;;;;;;;2.67;1.20;;;20.50;99.90;;;;;;5095440;28;20044;-62
2023/08/28 11:50:18;;;;;;;2.20;1.00;;;20.40;99.90;;;;;;5094202;28;20376;-62
2023/08/28 11:52:49;;;;;;;4.00;2.05;;;20.40;99.90;;;;;;5094859;28;20112;-64
2023/08/28 11:55:19;;;;;;;4.38;1.95;;;20.30;99.90;;;;;;5095086;28;20048;-63
2023/08/28 11:57:48;;;;;;;3.90;1.60;;;20.40;99.90;;;;;;5076855;28;20081;-63
2023/08/28 12:00:16;;;;;;;1.77;1.20;;;20.40;99.90;;;;;;5093617;28;20368;-62
2023/08/28 12:02:44;;;;;;;5.40;1.50;;;20.30;99.90;;;;;;5094947;28;20109;-63
2023/08/28 12:05:11;;;;;;;3.20;1.23;;;20.20;99.90;;;;;;5094810;28;20105;-63
2023/08/28 12:07:43;;;;;;;3.17;1.30;;;20.20;99.90;;;;;;5094918;28;20379;-63
2023/08/28 12:10:11;;;;;;;3.25;1.27;;;20.10;99.90;;;;;;5076506;28;20039;-62
2023/08/28 12:12:37;;;;;;;3.28;1.40;;;20.10;99.90;;;;;;5094731;28;20122;-62
2023/08/28 12:15:08;;;;;;;2.25;1.13;;;20.30;99.90;;;;;;5076538;28;20357;-62
2023/08/28 12:17:35;;;;;;;3.10;1.10;;;20.40;99.90;;;;;;5077332;28;20044;-61
2023/08/28 12:20:05;;;;;;;2.95;0.93;;;20.40;99.90;;;;;;5093719;28;20048;-63
2023/08/28 12:22:33;;;;;;;2.45;1.48;;;20.50;99.90;;;;;;5076637;28;20052;-62
2023/08/28 12:25:00;;;;;;;2.47;1.00;;;20.70;99.90;;;;;;5076874;28;20097;-62
2023/08/28 12:27:27;;;;;;;3.15;1.67;;;20.70;99.90;;;;;;5094755;28;20529;-63
2023/08/28 12:30:04;;;;;;;3.25;1.50;;;20.90;99.90;;;;;;5075618;28;20047;-62
2023/08/28 12:32:31;;;;;;;3.22;1.30;;;21.00;99.90;;;;;;5076374;28;20059;-61
2023/08/28 12:35:10;;;;;;;2.63;1.42;;;21.00;99.90;;;;;;5093980;28;20488;-63
2023/08/28 12:37:37;;;;;;;2.58;1.40;;;21.00;99.90;;;;;;5076812;28;20055;-62
2023/08/28 12:40:06;;;;;;;2.72;1.40;;;21.10;99.90;;;;;;5075668;28;20367;-62
2023/08/28 12:42:33;;;;;;;2.20;1.10;;;21.30;99.90;;;;;;5094058;28;20373;-62
2023/08/28 12:44:59;;;;;;;4.30;1.40;;;21.30;99.90;;;;;;5094446;28;20044;-63
2023/08/28 12:47:25;;;;;;;4.22;1.30;;;21.20;99.90;;;;;;5094395;28;20047;-62
2023/08/28 12:49:51;;;;;;;2.97;1.25;;;21.10;99.90;;;;;;5093983;28;20067;-62